createdAt,value
2022-07-30T00:01:48.963Z,5.50
2022-07-30T00:06:02.109Z,5.05
2022-07-30T00:10:15.309Z,3.90
2022-07-30T00:14:28.515Z,3.80
2022-07-30T00:18:45.910Z,2.90
2022-07-30T00:22:59.317Z,2.60
2022-07-30T00:27:14.544Z,2.30
2022-07-30T00:31:27.757Z,2.30
2022-07-30T00:35:42.379Z,2.08
2022-07-30T00:39:58.506Z,1.90
2022-07-30T00:44:14.776Z,2.08
2022-07-30T00:48:27.886Z,1.73
2022-07-30T00:52:43.296Z,1.83
2022-07-30T00:56:56.451Z,1.85
2022-07-30T01:01:09.599Z,1.90
2022-07-30T01:05:23.126Z,1.70
2022-07-30T01:09:37.795Z,1.70
2022-07-30T01:13:52.412Z,1.50
2022-07-30T01:18:09.211Z,1.77
2022-07-30T01:22:48.070Z,1.80
2022-07-30T01:27:03.483Z,1.70
2022-07-30T01:31:32.588Z,1.63
2022-07-30T01:40:44.684Z,1.50
2022-07-30T01:45:41.457Z,1.90
2022-07-30T01:55:33.357Z,1.70
2022-07-30T02:00:12.532Z,1.58
2022-07-30T02:14:31.627Z,1.73
2022-07-30T02:18:58.487Z,1.70
2022-07-30T02:23:29.713Z,2.00
2022-07-30T02:28:01.610Z,2.40
2022-07-30T02:32:31.238Z,2.40
2022-07-30T02:36:59.703Z,2.40
2022-07-30T02:46:09.160Z,2.80
2022-07-30T02:50:39.865Z,3.55
2022-07-30T02:55:05.666Z,3.70
2022-07-30T02:59:39.277Z,4.13
2022-07-30T03:04:04.913Z,4.43
2022-07-30T03:08:20.079Z,5.10
2022-07-30T03:12:47.403Z,5.07
2022-07-30T03:17:09.852Z,5.30
2022-07-30T03:21:31.888Z,4.82
2022-07-30T03:30:47.053Z,3.83
2022-07-30T03:35:16.744Z,3.60
2022-07-30T03:39:42.574Z,3.42
2022-07-30T03:44:00.577Z,3.10
2022-07-30T03:48:29.074Z,3.25
2022-07-30T03:52:50.905Z,3.13
2022-07-30T03:57:30.779Z,3.10
2022-07-30T04:02:06.765Z,3.40
2022-07-30T04:06:34.945Z,3.75
2022-07-30T04:22:08.261Z,4.55
2022-07-30T04:26:39.696Z,3.80
2022-07-30T04:36:16.512Z,4.75
2022-07-30T04:40:44.068Z,4.80
2022-07-30T04:45:05.928Z,4.40
2022-07-30T04:49:46.146Z,4.55
2022-07-30T04:54:35.174Z,4.82
2022-07-30T04:59:22.060Z,4.55
2022-07-30T05:04:00.451Z,4.57
2022-07-30T05:08:26.348Z,4.28
2022-07-30T05:18:00.339Z,4.30
2022-07-30T05:22:36.317Z,4.10
2022-07-30T05:26:59.584Z,3.80
2022-07-30T05:31:20.518Z,3.45
2022-07-30T05:35:41.685Z,3.28
2022-07-30T05:40:02.956Z,2.63
2022-07-30T05:44:21.991Z,3.03
2022-07-30T05:48:37.439Z,2.60
2022-07-30T05:52:52.996Z,2.35
2022-07-30T05:57:10.330Z,2.30
2022-07-30T06:01:27.336Z,1.85
2022-07-30T06:05:40.695Z,2.00
2022-07-30T06:10:00.234Z,2.50
2022-07-30T06:14:14.194Z,3.30
2022-07-30T06:18:27.468Z,2.47
2022-07-30T06:22:41.121Z,2.65
2022-07-30T06:32:13.621Z,2.63
2022-07-30T06:36:57.669Z,3.03
2022-07-30T06:41:28.159Z,2.85
2022-07-30T06:46:07.504Z,2.72
2022-07-30T06:50:52.606Z,2.90
2022-07-30T06:55:21.255Z,2.92
2022-07-30T06:59:56.004Z,2.75
2022-07-30T07:04:26.749Z,2.30
2022-07-30T07:08:40.525Z,2.40
2022-07-30T07:13:01.093Z,2.08
2022-07-30T07:17:21.974Z,2.47
2022-07-30T07:21:57.205Z,2.70
2022-07-30T07:26:47.813Z,2.70
2022-07-30T07:32:05.706Z,2.70
2022-07-30T07:35:51.864Z,2.50
2022-07-30T07:40:27.522Z,2.40
2022-07-30T07:44:53.064Z,3.30
2022-07-30T07:49:34.189Z,2.75
2022-07-30T07:54:18.609Z,2.80
2022-07-30T07:59:01.035Z,3.42
2022-07-30T08:03:48.787Z,2.70
2022-07-30T08:08:21.028Z,2.50
2022-07-30T08:12:49.782Z,2.65
2022-07-30T08:17:33.751Z,2.50
2022-07-30T08:22:02.803Z,2.70
2022-07-30T08:27:17.231Z,2.80
2022-07-30T08:31:37.747Z,2.53
2022-07-30T08:36:19.652Z,2.90
2022-07-30T08:41:12.588Z,2.20
2022-07-30T08:45:34.839Z,2.50
2022-07-30T08:49:56.184Z,2.70
2022-07-30T08:54:33.038Z,2.38
2022-07-30T09:03:54.905Z,2.42
2022-07-30T09:08:53.728Z,2.58
2022-07-30T09:13:25.154Z,2.50
2022-07-30T09:17:53.998Z,2.97
2022-07-30T09:22:09.019Z,3.00
2022-07-30T09:26:23.846Z,2.88
2022-07-30T09:30:54.528Z,2.85
2022-07-30T09:35:15.345Z,3.50
2022-07-30T09:39:36.717Z,3.20
2022-07-30T09:43:53.359Z,3.80
2022-07-30T09:48:23.911Z,3.80
2022-07-30T09:52:43.852Z,3.10
2022-07-30T09:57:23.199Z,3.67
2022-07-30T10:02:03.792Z,4.10
2022-07-30T10:06:21.008Z,4.03
2022-07-30T10:10:35.576Z,3.60
2022-07-30T10:15:06.253Z,4.22
2022-07-30T10:19:40.289Z,4.28
2022-07-30T10:23:56.722Z,4.47
2022-07-30T10:28:11.145Z,5.03
2022-07-30T10:32:31.003Z,4.65
2022-07-30T10:36:48.494Z,4.93
2022-07-30T10:41:42.783Z,4.38
2022-07-30T10:46:19.994Z,4.97
2022-07-30T10:50:51.183Z,4.57
2022-07-30T10:55:14.130Z,5.07
2022-07-30T10:59:30.433Z,5.32
2022-07-30T11:04:29.376Z,5.13
2022-07-30T11:08:48.516Z,4.65
2022-07-30T11:13:05.006Z,5.45
2022-07-30T11:17:20.706Z,4.95
2022-07-30T11:21:34.306Z,4.95
2022-07-30T11:25:54.583Z,4.40
2022-07-30T11:30:47.120Z,5.30
2022-07-30T11:35:23.127Z,5.00
2022-07-30T11:45:04.049Z,4.50
2022-07-30T11:49:21.217Z,4.78
2022-07-30T11:53:39.299Z,4.60
2022-07-30T11:57:52.661Z,4.63
2022-07-30T12:02:06.178Z,4.95
2022-07-30T12:06:41.055Z,5.10
2022-07-30T12:15:49.972Z,5.18
2022-07-30T12:20:03.071Z,5.43
2022-07-30T12:24:16.560Z,5.10
2022-07-30T12:28:35.744Z,4.40
2022-07-30T12:32:49.652Z,4.88
2022-07-30T12:37:10.143Z,4.70
2022-07-30T12:41:23.633Z,4.03
2022-07-30T12:45:50.408Z,4.30
2022-07-30T12:50:18.487Z,3.97
2022-07-30T12:54:32.195Z,3.90
2022-07-30T12:58:45.816Z,3.58
2022-07-30T13:03:00.723Z,3.90
2022-07-30T13:07:13.942Z,3.90
2022-07-30T13:11:31.072Z,3.50
2022-07-30T13:15:57.006Z,3.85
2022-07-30T13:20:12.875Z,3.70
2022-07-30T13:24:25.997Z,3.90
2022-07-30T13:28:42.129Z,3.75
2022-07-30T13:32:57.325Z,4.22
2022-07-30T13:37:14.542Z,4.00
2022-07-30T13:41:31.442Z,4.25
2022-07-30T13:45:47.915Z,4.13
2022-07-30T13:50:02.924Z,3.92
2022-07-30T13:54:18.823Z,3.90
2022-07-30T13:58:36.060Z,3.63
2022-07-30T14:02:50.463Z,3.08
2022-07-30T14:07:04.171Z,3.67
2022-07-30T14:11:21.537Z,3.45
2022-07-30T14:15:36.249Z,3.53
2022-07-30T14:19:54.496Z,3.22
2022-07-30T14:24:15.393Z,3.33
2022-07-30T14:28:29.925Z,3.13
2022-07-30T14:32:43.112Z,2.88
2022-07-30T14:36:56.332Z,2.45
2022-07-30T14:41:12.687Z,2.13
2022-07-30T14:45:27.312Z,2.25
2022-07-30T14:49:41.979Z,2.42
2022-07-30T14:53:55.253Z,2.63
2022-07-30T14:58:10.145Z,3.25
2022-07-30T15:02:24.798Z,3.20
2022-07-30T15:06:44.291Z,3.28
2022-07-30T15:11:02.363Z,2.85
2022-07-30T15:15:19.087Z,2.88
2022-07-30T15:19:49.225Z,2.67
2022-07-30T15:24:07.449Z,2.55
2022-07-30T15:28:26.876Z,2.30
2022-07-30T15:32:40.067Z,2.38
2022-07-30T15:36:55.202Z,2.42
2022-07-30T15:41:13.352Z,2.60
2022-07-30T15:45:29.607Z,2.60
2022-07-30T15:50:05.776Z,2.70
2022-07-30T15:54:23.397Z,2.50
2022-07-30T15:58:43.390Z,2.58
2022-07-30T16:03:00.319Z,2.20
2022-07-30T16:07:13.509Z,2.60
2022-07-30T16:11:28.126Z,2.20
2022-07-30T16:15:45.838Z,2.50
2022-07-30T16:19:58.970Z,2.50
2022-07-30T16:24:14.295Z,2.13
2022-07-30T16:28:31.755Z,2.00
2022-07-30T16:32:48.141Z,2.10
2022-07-30T16:37:04.326Z,2.10
2022-07-30T16:41:17.669Z,2.08
2022-07-30T16:45:32.253Z,2.10
2022-07-30T16:49:45.396Z,2.10
2022-07-30T16:53:58.575Z,2.40
2022-07-30T16:58:13.203Z,1.90
2022-07-30T17:02:27.788Z,1.90
2022-07-30T17:06:41.214Z,1.85
2022-07-30T17:10:57.582Z,1.95
2022-07-30T17:15:11.694Z,1.90
2022-07-30T17:19:26.729Z,1.98
2022-07-30T17:23:39.897Z,1.92
2022-07-30T17:27:53.011Z,2.38
2022-07-30T17:32:08.278Z,2.38
2022-07-30T17:36:25.798Z,2.35
2022-07-30T17:40:40.542Z,2.65
2022-07-30T17:44:53.769Z,2.30
2022-07-30T17:49:07.055Z,2.72
2022-07-30T17:53:21.643Z,2.90
2022-07-30T17:57:34.801Z,2.75
2022-07-30T18:01:48.643Z,2.70
2022-07-30T18:06:01.906Z,3.30
2022-07-30T18:10:20.377Z,3.85
2022-07-30T18:14:33.498Z,3.00
2022-07-30T18:18:46.722Z,3.65
2022-07-30T18:22:59.959Z,2.80
2022-07-30T18:27:14.949Z,3.38
2022-07-30T18:31:30.702Z,3.38
2022-07-30T18:35:44.070Z,3.67
2022-07-30T18:39:57.393Z,3.53
2022-07-30T18:44:11.972Z,3.55
2022-07-30T18:48:25.767Z,3.22
2022-07-30T18:52:39.088Z,3.30
2022-07-30T18:56:52.406Z,3.30
2022-07-30T19:01:07.439Z,3.20
2022-07-30T19:05:20.782Z,3.10
2022-07-30T19:09:34.206Z,3.00
2022-07-30T19:13:47.385Z,3.25
2022-07-30T19:18:04.543Z,3.45
2022-07-30T19:22:17.777Z,3.30
2022-07-30T19:26:42.861Z,3.33
2022-07-30T19:30:56.129Z,3.72
2022-07-30T19:35:14.510Z,3.15
2022-07-30T19:39:27.920Z,3.15
2022-07-30T19:43:41.205Z,3.25
2022-07-30T19:47:54.624Z,3.30
2022-07-30T19:52:23.297Z,3.00
2022-07-30T19:56:38.753Z,3.30
2022-07-30T20:00:55.054Z,2.97
2022-07-30T20:05:12.077Z,3.35
2022-07-30T20:09:28.628Z,3.70
2022-07-30T20:13:45.171Z,3.05
2022-07-30T20:17:59.086Z,3.30
2022-07-30T20:22:12.906Z,3.20
2022-07-30T20:26:29.189Z,2.88
2022-07-30T20:30:42.887Z,2.95
2022-07-30T20:34:57.003Z,3.20
2022-07-30T20:39:18.197Z,2.92
2022-07-30T20:43:33.094Z,3.17
2022-07-30T20:47:59.465Z,2.63
2022-07-30T20:52:18.420Z,3.08
2022-07-30T20:56:33.735Z,3.30
2022-07-30T21:00:49.309Z,3.05
2022-07-30T21:05:03.455Z,3.20
2022-07-30T21:09:16.900Z,3.40
2022-07-30T21:13:30.003Z,3.10
2022-07-30T21:17:49.736Z,2.80
2022-07-30T21:22:05.212Z,3.00
2022-07-30T21:26:24.238Z,3.00
2022-07-30T21:30:40.912Z,3.10
2022-07-30T21:35:08.445Z,3.40
2022-07-30T21:39:28.734Z,3.05
2022-07-30T21:43:45.244Z,3.45
2022-07-30T21:48:02.376Z,3.80
2022-07-30T21:52:21.338Z,4.00
2022-07-30T21:56:35.571Z,3.88
2022-07-30T22:01:18.004Z,3.58
2022-07-30T22:05:38.324Z,3.90
2022-07-30T22:09:56.181Z,4.32
2022-07-30T22:14:12.938Z,4.30
2022-07-30T22:18:29.843Z,4.25
2022-07-30T22:22:43.810Z,4.47
2022-07-30T22:27:01.491Z,4.13
2022-07-30T22:31:16.116Z,4.35
2022-07-30T22:35:33.480Z,4.38
2022-07-30T22:39:51.193Z,4.55
2022-07-30T22:44:06.860Z,4.78
2022-07-30T22:48:40.131Z,4.82
2022-07-30T22:52:59.636Z,4.75
2022-07-30T22:57:26.438Z,4.90
2022-07-30T23:01:44.175Z,4.80
2022-07-30T23:05:59.068Z,5.25
2022-07-30T23:10:18.097Z,5.25
2022-07-30T23:14:31.684Z,5.22
2022-07-30T23:18:46.244Z,5.03
2022-07-30T23:23:01.541Z,5.18
2022-07-30T23:27:14.713Z,4.85
2022-07-30T23:31:27.864Z,5.32
2022-07-30T23:35:43.650Z,4.80
2022-07-30T23:39:59.755Z,5.85
2022-07-30T23:44:12.887Z,5.22
2022-07-30T23:48:26.150Z,5.50
2022-07-30T23:52:42.331Z,5.30
2022-07-30T23:56:57.779Z,5.22
